Gardnerville, Nevada
Current Conditions -  °F | °C
As of 8:35 PM on Saturday 25 Oct 2014 (Local Time) from KMEV Reporting Station
Clear Clear  
Wind Chill: 37°   Ceiling: Unl
Heat Index: 43°   Visibility: 10mi
Dew Point: 28°   Wind: 10mph
Humidity: 57%   Direction: 240°WSW
Pressure: 30.09"   Gusts: 18mph
Location:  38.94°N, 119.74°W
Report Text: KMEV 260335Z AUTO 24009G16KT 10SM CLR 06/M02 A3009 RMK AO2
Loading
Personal Weather Stations






























Interactive Weather Map
Tropical Storm Tracking
New forecast layout! Learn more

10-Day Weather Forecast

Advertisements
Track Severe Weather on mobile